createdAt,value
2018-08-23T00:00:39.890Z,23.20
2018-08-23T00:03:14.576Z,23.30
2018-08-23T00:05:50.260Z,23.20
2018-08-23T00:08:18.763Z,23.30
2018-08-23T00:10:47.730Z,23.20
2018-08-23T00:13:16.032Z,23.30
2018-08-23T00:15:44.309Z,23.20
2018-08-23T00:18:12.588Z,23.20
2018-08-23T00:20:41.309Z,23.30
2018-08-23T00:23:09.594Z,23.20
2018-08-23T00:25:38.395Z,23.20
2018-08-23T00:28:07.152Z,23.10
2018-08-23T00:30:35.736Z,23.00
2018-08-23T00:33:05.035Z,23.00
2018-08-23T00:35:36.066Z,22.90
2018-08-23T00:38:05.081Z,22.90
2018-08-23T00:40:36.298Z,22.90
2018-08-23T00:43:05.214Z,22.80
2018-08-23T00:45:33.416Z,22.80
2018-08-23T00:48:01.635Z,22.80
2018-08-23T00:51:05.980Z,22.80
2018-08-23T00:53:35.374Z,22.60
2018-08-23T00:56:21.242Z,22.50
2018-08-23T00:58:55.795Z,22.50
2018-08-23T01:01:24.011Z,22.40
2018-08-23T01:03:52.482Z,22.60
2018-08-23T01:06:24.459Z,22.70
2018-08-23T01:08:52.711Z,22.70
2018-08-23T01:11:20.920Z,22.70
2018-08-23T01:13:49.170Z,22.70
2018-08-23T01:16:17.372Z,22.70
2018-08-23T01:18:45.604Z,22.70
2018-08-23T01:21:13.834Z,22.50
2018-08-23T01:23:42.861Z,22.40
2018-08-23T01:26:11.123Z,22.30
2018-08-23T01:28:39.385Z,22.20
2018-08-23T01:31:22.386Z,22.20
2018-08-23T01:33:53.206Z,22.20
2018-08-23T01:36:25.739Z,22.20
2018-08-23T01:38:54.100Z,22.20
2018-08-23T01:41:22.344Z,22.20
2018-08-23T01:43:50.611Z,22.30
2018-08-23T01:46:18.852Z,22.40
2018-08-23T01:48:50.487Z,22.40
2018-08-23T01:51:18.712Z,22.40
2018-08-23T01:53:48.986Z,22.30
2018-08-23T01:56:17.868Z,22.30
2018-08-23T01:58:46.185Z,22.20
2018-08-23T02:01:16.497Z,22.20
2018-08-23T02:03:45.180Z,22.20
2018-08-23T02:06:13.417Z,22.20
2018-08-23T02:08:43.169Z,22.20
2018-08-23T02:11:11.410Z,22.20
2018-08-23T02:13:39.740Z,22.20
2018-08-23T02:16:07.993Z,22.20
2018-08-23T02:18:36.257Z,22.30
2018-08-23T02:21:09.396Z,22.30
2018-08-23T02:23:42.687Z,22.20
2018-08-23T02:26:10.981Z,22.30
2018-08-23T02:28:39.245Z,22.20
2018-08-23T02:31:07.488Z,22.20
2018-08-23T02:33:35.712Z,22.10
2018-08-23T02:36:18.698Z,22.10
2018-08-23T02:41:37.466Z,22.10
2018-08-23T02:44:05.719Z,22.20
2018-08-23T02:46:33.985Z,22.20
2018-08-23T02:49:02.247Z,22.20
2018-08-23T02:51:41.498Z,22.20
2018-08-23T02:54:11.809Z,22.20
2018-08-23T02:56:40.795Z,22.20
2018-08-23T02:59:09.015Z,22.20
2018-08-23T03:01:40.840Z,22.10
2018-08-23T03:04:13.408Z,22.10
2018-08-23T03:06:55.872Z,22.00
2018-08-23T03:09:26.252Z,22.00
2018-08-23T03:11:55.760Z,22.00
2018-08-23T03:14:24.905Z,22.00
2018-08-23T03:17:33.245Z,21.90
2018-08-23T03:20:03.881Z,21.90
2018-08-23T03:22:33.198Z,22.00
2018-08-23T03:25:03.949Z,21.90
2018-08-23T03:27:32.415Z,21.90
2018-08-23T03:30:01.413Z,21.90
2018-08-23T03:32:29.905Z,21.70
2018-08-23T03:34:58.604Z,21.60
2018-08-23T03:37:26.872Z,21.70
2018-08-23T03:39:55.352Z,21.80
2018-08-23T03:42:23.842Z,21.90
2018-08-23T03:44:53.136Z,21.80
2018-08-23T03:47:21.515Z,21.70
2018-08-23T03:49:50.021Z,21.70
2018-08-23T03:52:19.667Z,21.60
2018-08-23T03:55:05.376Z,21.50
2018-08-23T03:57:38.879Z,21.50
2018-08-23T04:00:07.214Z,21.40
2018-08-23T04:02:35.431Z,21.30
2018-08-23T04:05:11.275Z,20.90
2018-08-23T04:07:40.312Z,20.70
2018-08-23T04:10:08.691Z,20.70
2018-08-23T04:12:38.725Z,20.70
2018-08-23T04:15:19.592Z,20.70
2018-08-23T04:17:48.492Z,20.70
2018-08-23T04:20:16.809Z,20.70
2018-08-23T04:22:45.028Z,20.50
2018-08-23T04:25:13.257Z,20.50
2018-08-23T04:27:41.499Z,20.80
2018-08-23T04:30:10.097Z,21.00
2018-08-23T04:32:41.956Z,21.10
2018-08-23T04:35:18.399Z,21.20
2018-08-23T04:37:46.813Z,21.20
2018-08-23T04:40:15.045Z,21.20
2018-08-23T04:42:43.275Z,21.30
2018-08-23T04:45:13.589Z,21.10
2018-08-23T04:47:52.481Z,20.80
2018-08-23T04:50:20.996Z,20.50
2018-08-23T04:52:49.237Z,20.40
2018-08-23T04:55:17.529Z,20.50
2018-08-23T04:57:45.771Z,20.40
2018-08-23T05:00:13.997Z,20.40
2018-08-23T05:02:42.247Z,20.40
2018-08-23T05:05:10.469Z,20.30
2018-08-23T05:07:38.711Z,20.20
2018-08-23T05:10:06.951Z,20.30
2018-08-23T05:12:35.267Z,20.50
2018-08-23T05:15:03.506Z,20.50
2018-08-23T05:17:31.754Z,20.70
2018-08-23T05:20:00.045Z,21.00
2018-08-23T05:22:28.330Z,21.00
2018-08-23T05:25:02.073Z,20.80
2018-08-23T05:27:30.315Z,20.80
2018-08-23T05:29:58.530Z,20.60
2018-08-23T05:32:26.784Z,20.70
2018-08-23T05:34:55.022Z,20.70
2018-08-23T05:37:23.308Z,20.70
2018-08-23T05:39:52.558Z,20.60
2018-08-23T05:42:33.437Z,20.50
2018-08-23T05:45:01.671Z,20.70
2018-08-23T05:47:29.929Z,20.80
2018-08-23T05:49:58.165Z,20.80
2018-08-23T05:52:26.399Z,20.90
2018-08-23T05:54:55.238Z,20.90
2018-08-23T05:57:23.499Z,20.50
2018-08-23T05:59:51.760Z,20.50
2018-08-23T06:02:20.035Z,20.60
2018-08-23T06:04:48.294Z,20.80
2018-08-23T06:07:16.619Z,21.10
2018-08-23T06:09:44.861Z,21.20
2018-08-23T06:12:13.138Z,21.40
2018-08-23T06:14:41.430Z,21.50
2018-08-23T06:17:09.667Z,21.50
2018-08-23T06:19:38.131Z,21.50
2018-08-23T06:22:06.363Z,21.60
2018-08-23T06:24:34.594Z,21.70
2018-08-23T06:27:03.390Z,21.80
2018-08-23T06:29:33.648Z,21.90
2018-08-23T06:32:10.024Z,21.90
2018-08-23T06:34:51.082Z,21.90
2018-08-23T06:37:20.263Z,22.00
2018-08-23T06:39:48.485Z,22.10
2018-08-23T06:42:16.731Z,22.30
2018-08-23T06:44:51.203Z,22.30
2018-08-23T06:47:20.887Z,22.30
2018-08-23T06:49:50.290Z,22.40
2018-08-23T06:52:35.149Z,22.60
2018-08-23T06:55:03.920Z,22.60
2018-08-23T06:57:42.142Z,22.60
2018-08-23T07:00:10.388Z,22.60
2018-08-23T07:02:44.163Z,22.60
2018-08-23T07:05:12.400Z,22.60
2018-08-23T07:07:40.632Z,22.90
2018-08-23T07:10:08.876Z,22.90
2018-08-23T07:12:37.108Z,23.10
2018-08-23T07:15:05.405Z,23.10
2018-08-23T07:17:33.652Z,23.10
2018-08-23T07:20:04.143Z,23.10
2018-08-23T07:22:34.492Z,23.10
2018-08-23T07:25:02.764Z,23.10
2018-08-23T07:27:31.011Z,23.20
2018-08-23T07:29:59.935Z,23.30
2018-08-23T07:32:29.094Z,23.40
2018-08-23T07:35:05.292Z,23.30
2018-08-23T07:37:34.806Z,23.30
2018-08-23T07:40:09.273Z,23.30
2018-08-23T07:42:38.206Z,23.40
2018-08-23T07:45:07.192Z,23.40
2018-08-23T07:47:37.852Z,23.50
2018-08-23T07:50:06.743Z,23.50
2018-08-23T07:52:35.044Z,23.60
2018-08-23T07:55:04.762Z,23.70
2018-08-23T07:57:34.043Z,23.70
2018-08-23T08:00:06.643Z,23.80
2018-08-23T08:02:34.884Z,23.90
2018-08-23T08:05:03.165Z,23.90
2018-08-23T08:07:32.290Z,23.90
2018-08-23T08:10:01.369Z,24.00
2018-08-23T08:12:39.592Z,24.00
2018-08-23T08:15:10.442Z,24.20
2018-08-23T08:17:38.560Z,24.30
2018-08-23T08:20:08.096Z,24.40
2018-08-23T08:22:36.349Z,24.50
2018-08-23T08:25:09.291Z,24.60
2018-08-23T08:27:38.184Z,24.70
2018-08-23T08:30:09.204Z,24.90
2018-08-23T08:32:37.462Z,25.10
2018-08-23T08:35:05.712Z,25.20
2018-08-23T08:37:33.986Z,25.30
2018-08-23T08:40:02.210Z,25.50
2018-08-23T08:42:31.768Z,25.50
2018-08-23T08:45:15.444Z,25.50
2018-08-23T08:47:44.900Z,25.60
2018-08-23T08:50:13.107Z,25.70
2018-08-23T08:52:41.338Z,25.90
2018-08-23T08:55:12.192Z,25.90
2018-08-23T08:57:41.127Z,26.00
2018-08-23T09:00:09.665Z,26.00
2018-08-23T09:02:37.903Z,26.10
2018-08-23T09:05:06.394Z,26.10
2018-08-23T09:07:35.535Z,26.10
2018-08-23T09:10:03.807Z,26.10
2018-08-23T09:12:32.716Z,26.10
2018-08-23T09:15:00.935Z,26.10
2018-08-23T09:17:38.600Z,26.10
2018-08-23T09:20:14.764Z,26.10
2018-08-23T09:22:48.165Z,26.10
2018-08-23T09:25:22.229Z,26.10
2018-08-23T09:27:50.957Z,26.20
2018-08-23T09:30:24.619Z,26.30
2018-08-23T09:32:52.863Z,26.20
2018-08-23T09:35:24.193Z,26.30
2018-08-23T09:37:56.392Z,26.30
2018-08-23T09:40:25.155Z,26.40
2018-08-23T09:42:53.450Z,26.40
2018-08-23T09:45:21.595Z,26.50
2018-08-23T09:47:49.862Z,26.50
2018-08-23T09:50:18.147Z,26.70
2018-08-23T09:52:47.580Z,27.00
2018-08-23T09:55:16.971Z,27.10
2018-08-23T09:57:45.680Z,27.10
2018-08-23T10:00:15.301Z,27.20
2018-08-23T10:02:48.922Z,27.20
2018-08-23T10:05:22.625Z,27.20
2018-08-23T10:07:56.332Z,27.20
2018-08-23T10:10:30.150Z,27.20
2018-08-23T10:13:03.737Z,27.30
2018-08-23T10:15:37.343Z,27.30
2018-08-23T10:19:10.899Z,27.30
2018-08-23T10:21:44.630Z,27.30
2018-08-23T10:24:18.297Z,27.30
2018-08-23T10:26:46.532Z,27.40
2018-08-23T10:29:14.769Z,27.40
2018-08-23T10:31:42.970Z,27.40
2018-08-23T10:34:11.192Z,27.40
2018-08-23T10:36:39.441Z,27.40
2018-08-23T10:39:09.524Z,27.30
2018-08-23T10:41:37.744Z,27.30
2018-08-23T10:44:06.273Z,27.20
2018-08-23T10:46:40.009Z,27.20
2018-08-23T10:49:08.266Z,27.20
2018-08-23T10:51:36.492Z,27.10
2018-08-23T10:54:04.715Z,27.00
2018-08-23T10:56:32.942Z,27.10
2018-08-23T10:59:01.198Z,27.10
2018-08-23T11:01:29.360Z,27.10
2018-08-23T11:04:01.820Z,27.10
2018-08-23T11:06:30.040Z,27.10
2018-08-23T11:09:03.712Z,27.10
2018-08-23T11:11:33.444Z,27.10
2018-08-23T11:14:07.078Z,27.10
2018-08-23T11:16:40.673Z,26.90
2018-08-23T11:19:14.137Z,27.00
2018-08-23T11:21:42.367Z,27.10
2018-08-23T11:24:10.598Z,26.90
2018-08-23T11:26:38.869Z,27.10
2018-08-23T11:29:07.078Z,26.80
2018-08-23T11:31:35.338Z,27.00
2018-08-23T11:34:03.580Z,27.30
2018-08-23T11:36:31.833Z,27.40
2018-08-23T11:39:00.089Z,27.40
2018-08-23T11:41:28.323Z,27.40
2018-08-23T11:43:56.549Z,27.50
2018-08-23T11:46:24.783Z,27.50
2018-08-23T11:48:53.096Z,27.60
2018-08-23T11:51:21.287Z,27.80
2018-08-23T11:53:49.553Z,27.90
2018-08-23T11:56:17.750Z,28.00
2018-08-23T11:58:46.005Z,28.10
2018-08-23T12:01:15.745Z,28.20
2018-08-23T12:03:44.311Z,27.90
2018-08-23T12:06:13.825Z,28.50
2018-08-23T12:08:42.530Z,28.70
2018-08-23T12:11:10.795Z,29.10
2018-08-23T12:13:39.020Z,29.30
2018-08-23T12:16:09.226Z,29.00
2018-08-23T12:18:38.223Z,29.00
2018-08-23T12:21:06.533Z,29.20
2018-08-23T12:23:34.953Z,29.50
2018-08-23T12:26:03.314Z,29.50
2018-08-23T12:28:36.795Z,29.40
2018-08-23T12:31:05.060Z,29.00
2018-08-23T12:33:33.323Z,29.20
2018-08-23T12:36:01.899Z,28.90
2018-08-23T12:38:35.319Z,29.10
2018-08-23T12:41:09.044Z,29.20
2018-08-23T12:43:50.936Z,29.30
2018-08-23T12:46:19.245Z,29.30
2018-08-23T12:48:47.683Z,29.20
2018-08-23T12:51:16.238Z,29.30
2018-08-23T12:53:44.514Z,29.30
2018-08-23T12:56:12.822Z,29.30
2018-08-23T12:58:41.017Z,29.30
2018-08-23T13:01:09.272Z,29.40
2018-08-23T13:03:37.532Z,29.40
2018-08-23T13:06:05.768Z,29.50
2018-08-23T13:08:34.028Z,29.50
2018-08-23T13:11:02.277Z,29.50
2018-08-23T13:13:30.970Z,29.60
2018-08-23T13:15:59.216Z,29.70
2018-08-23T13:18:27.494Z,29.80
2018-08-23T13:20:55.733Z,29.90
2018-08-23T13:23:23.991Z,30.00
2018-08-23T13:25:57.522Z,30.00
2018-08-23T13:28:26.926Z,29.70
2018-08-23T13:30:55.187Z,29.70
2018-08-23T13:33:24.306Z,30.00
2018-08-23T13:35:52.501Z,30.20
2018-08-23T13:38:20.785Z,30.00
2018-08-23T13:40:49.569Z,30.50
2018-08-23T13:43:17.811Z,30.80
2018-08-23T13:45:46.086Z,31.10
2018-08-23T13:48:14.342Z,31.40
2018-08-23T13:50:42.549Z,31.40
2018-08-23T13:53:10.775Z,31.40
2018-08-23T13:55:39.154Z,31.80
2018-08-23T13:58:07.398Z,32.10
2018-08-23T14:00:40.719Z,31.90
2018-08-23T14:03:10.162Z,31.70
2018-08-23T14:05:39.641Z,31.80
2018-08-23T14:08:08.314Z,32.00
2018-08-23T14:10:36.539Z,32.10
2018-08-23T14:13:05.008Z,32.10
2018-08-23T14:15:38.664Z,32.00
2018-08-23T14:18:06.946Z,30.90
2018-08-23T14:20:35.267Z,31.60
2018-08-23T14:23:03.496Z,32.00
2018-08-23T14:25:31.741Z,32.30
2018-08-23T14:28:00.005Z,32.20
2018-08-23T14:30:28.543Z,32.30
2018-08-23T14:32:56.904Z,32.10
2018-08-23T14:35:25.520Z,32.10
2018-08-23T14:37:53.772Z,31.10
2018-08-23T14:40:22.029Z,30.60
2018-08-23T14:42:50.231Z,31.20
2018-08-23T14:45:24.027Z,31.60
2018-08-23T14:47:57.699Z,31.50
2018-08-23T14:50:25.943Z,30.90
2018-08-23T14:52:54.186Z,31.00
2018-08-23T14:56:29.759Z,30.50
2018-08-23T14:58:57.990Z,30.80
2018-08-23T15:01:26.228Z,31.40
2018-08-23T15:03:54.451Z,31.80
2018-08-23T15:06:22.727Z,32.00
2018-08-23T15:08:51.007Z,31.90
2018-08-23T15:11:19.244Z,31.80
2018-08-23T15:13:47.491Z,31.40
2018-08-23T15:16:15.727Z,31.30
2018-08-23T15:18:43.969Z,31.00
2018-08-23T15:21:12.207Z,30.50
2018-08-23T15:23:40.452Z,30.40
2018-08-23T15:26:08.747Z,30.50
2018-08-23T15:28:36.943Z,30.50
2018-08-23T15:31:05.205Z,30.70
2018-08-23T15:33:33.461Z,30.30
2018-08-23T15:36:01.699Z,30.30
2018-08-23T15:38:29.972Z,30.40
2018-08-23T15:40:58.235Z,30.60
2018-08-23T15:43:26.451Z,30.70
2018-08-23T15:45:54.693Z,30.80
2018-08-23T15:48:22.968Z,30.80
2018-08-23T15:50:51.231Z,30.90
2018-08-23T15:53:19.482Z,30.80
2018-08-23T15:55:47.797Z,30.70
2018-08-23T15:58:16.035Z,30.60
2018-08-23T16:00:44.264Z,30.60
2018-08-23T16:03:12.473Z,30.60
2018-08-23T16:05:40.727Z,30.50
2018-08-23T16:08:08.955Z,30.40
2018-08-23T16:10:37.286Z,30.30
2018-08-23T16:13:05.521Z,30.20
2018-08-23T16:15:33.968Z,30.10
2018-08-23T16:18:07.600Z,30.00
2018-08-23T16:20:41.364Z,30.00
2018-08-23T16:23:09.600Z,30.00
2018-08-23T16:25:41.700Z,30.00
2018-08-23T16:28:10.032Z,29.90
2018-08-23T16:30:40.635Z,29.80
2018-08-23T16:33:09.001Z,29.80
2018-08-23T16:35:37.272Z,29.60
2018-08-23T16:38:05.548Z,29.60
2018-08-23T16:40:33.799Z,29.50
2018-08-23T16:43:03.446Z,29.50
2018-08-23T16:45:31.709Z,29.00
2018-08-23T16:47:59.929Z,28.40
2018-08-23T16:50:28.950Z,27.80
2018-08-23T16:52:57.226Z,27.50
2018-08-23T16:55:25.438Z,27.30
2018-08-23T16:57:53.713Z,27.10
2018-08-23T17:00:21.974Z,26.90
2018-08-23T17:02:50.234Z,26.60
2018-08-23T17:05:18.462Z,26.40
2018-08-23T17:07:46.688Z,26.10
2018-08-23T17:10:15.017Z,26.00
2018-08-23T17:12:43.271Z,26.10
2018-08-23T17:15:14.462Z,26.00
2018-08-23T17:17:48.244Z,26.00
2018-08-23T17:20:16.928Z,25.90
2018-08-23T17:22:45.175Z,25.80
2018-08-23T17:25:13.483Z,25.50
2018-08-23T17:27:41.688Z,25.30
2018-08-23T17:30:09.937Z,25.30
2018-08-23T17:32:38.217Z,25.10
2018-08-23T17:35:06.529Z,25.00
2018-08-23T17:37:34.788Z,25.10
2018-08-23T17:40:03.452Z,24.60
2018-08-23T17:42:37.112Z,24.70
2018-08-23T17:45:05.355Z,24.50
2018-08-23T17:47:33.708Z,24.50
2018-08-23T17:50:01.993Z,24.80
2018-08-23T17:52:30.262Z,25.00
2018-08-23T17:54:58.531Z,25.00
2018-08-23T17:57:26.766Z,24.70
2018-08-23T17:59:55.001Z,24.70
2018-08-23T18:02:23.510Z,24.70
2018-08-23T18:04:52.198Z,24.60
2018-08-23T18:07:20.446Z,24.40
2018-08-23T18:09:48.668Z,24.60
2018-08-23T18:12:16.886Z,24.80
2018-08-23T18:14:45.145Z,24.70
2018-08-23T18:17:13.387Z,24.70
2018-08-23T18:19:41.630Z,24.50
2018-08-23T18:22:09.862Z,24.50
2018-08-23T18:24:38.109Z,24.40
2018-08-23T18:27:06.338Z,24.40
2018-08-23T18:29:34.559Z,24.30
2018-08-23T18:32:02.843Z,24.20
2018-08-23T18:34:31.040Z,24.20
2018-08-23T18:36:59.328Z,24.10
2018-08-23T18:39:27.565Z,24.00
2018-08-23T18:41:55.773Z,23.90
2018-08-23T18:44:24.008Z,23.90
2018-08-23T18:46:52.231Z,23.50
2018-08-23T18:49:20.478Z,23.70
2018-08-23T18:51:48.715Z,23.80
2018-08-23T18:54:17.002Z,23.80
2018-08-23T18:56:45.205Z,23.70
2018-08-23T18:59:13.466Z,23.50
2018-08-23T19:01:41.706Z,23.60
2018-08-23T19:04:09.939Z,23.60
2018-08-23T19:06:38.993Z,23.50
2018-08-23T19:09:10.559Z,23.60
2018-08-23T19:11:38.803Z,23.60
2018-08-23T19:14:07.111Z,23.70
2018-08-23T19:16:40.726Z,23.60
2018-08-23T19:19:08.983Z,23.60
2018-08-23T19:21:37.413Z,23.50
2018-08-23T19:24:05.642Z,23.50
2018-08-23T19:26:33.915Z,23.50
2018-08-23T19:29:02.146Z,23.50
2018-08-23T19:31:30.447Z,23.50
2018-08-23T19:33:58.568Z,23.60
2018-08-23T19:36:26.857Z,23.50
2018-08-23T19:38:55.092Z,23.00
2018-08-23T19:41:23.299Z,22.80
2018-08-23T19:43:51.525Z,22.80
2018-08-23T19:46:31.713Z,22.80
2018-08-23T19:49:05.326Z,23.10
2018-08-23T19:51:33.537Z,23.10
2018-08-23T19:54:01.855Z,22.90
2018-08-23T19:56:30.115Z,22.80
2018-08-23T19:58:58.327Z,22.80
2018-08-23T20:01:26.565Z,22.60
2018-08-23T20:03:54.778Z,22.60
2018-08-23T20:06:23.013Z,22.60
2018-08-23T20:08:51.201Z,22.60
2018-08-23T20:11:19.522Z,22.70
2018-08-23T20:13:47.763Z,22.80
2018-08-23T20:16:16.000Z,23.20
2018-08-23T20:18:44.249Z,22.80
2018-08-23T20:21:12.454Z,22.30
2018-08-23T20:23:40.736Z,22.20
2018-08-23T20:26:08.975Z,22.20
2018-08-23T20:28:37.272Z,22.30
2018-08-23T20:31:05.518Z,22.40
2018-08-23T20:33:33.749Z,22.60
2018-08-23T20:36:02.020Z,22.60
2018-08-23T20:38:30.299Z,22.50
2018-08-23T20:40:58.524Z,22.50
2018-08-23T20:43:26.821Z,22.60
2018-08-23T20:45:55.040Z,22.60
2018-08-23T20:48:23.311Z,22.60
2018-08-23T20:50:51.562Z,22.50
2018-08-23T20:53:19.812Z,22.50
2018-08-23T20:55:48.050Z,22.50
2018-08-23T20:58:16.347Z,22.50
2018-08-23T21:00:44.497Z,22.50
2018-08-23T21:03:12.714Z,22.50
2018-08-23T21:05:40.932Z,22.20
2018-08-23T21:08:09.178Z,21.80
2018-08-23T21:10:44.017Z,22.00
2018-08-23T21:13:12.306Z,22.10
2018-08-23T21:15:40.556Z,22.20
2018-08-23T21:18:10.644Z,22.30
2018-08-23T21:20:39.371Z,22.20
2018-08-23T21:23:07.838Z,22.10
2018-08-23T21:25:36.092Z,22.00
2018-08-23T21:28:04.336Z,21.90
2018-08-23T21:30:32.579Z,21.90
2018-08-23T21:33:00.980Z,21.90
2018-08-23T21:35:29.500Z,21.90
2018-08-23T21:37:57.778Z,21.90
2018-08-23T21:40:26.519Z,21.90
2018-08-23T21:42:54.750Z,21.90
2018-08-23T21:45:22.980Z,21.70
2018-08-23T21:47:51.209Z,21.80
2018-08-23T21:50:19.615Z,21.80
2018-08-23T21:52:48.285Z,21.80
2018-08-23T21:55:16.553Z,21.80
2018-08-23T21:57:45.003Z,21.80
2018-08-23T22:00:13.359Z,21.90
2018-08-23T22:02:41.581Z,21.90
2018-08-23T22:05:09.895Z,21.90
2018-08-23T22:07:38.180Z,21.90
2018-08-23T22:10:06.588Z,21.90
2018-08-23T22:12:35.236Z,21.70
2018-08-23T22:15:03.950Z,21.80
2018-08-23T22:17:32.191Z,21.80
2018-08-23T22:20:00.508Z,21.70
2018-08-23T22:22:28.765Z,21.70
2018-08-23T22:24:57.050Z,21.70
2018-08-23T22:27:25.314Z,21.60
2018-08-23T22:29:53.503Z,21.60
2018-08-23T22:32:22.200Z,21.50
2018-08-23T22:34:50.467Z,21.40
2018-08-23T22:37:19.007Z,21.40
2018-08-23T22:39:47.248Z,21.40
2018-08-23T22:42:15.681Z,21.40
2018-08-23T22:44:43.944Z,21.40
2018-08-23T22:47:12.192Z,21.30
2018-08-23T22:49:40.441Z,21.40
2018-08-23T22:52:08.723Z,21.30
2018-08-23T22:54:36.956Z,21.40
2018-08-23T22:57:05.272Z,21.20
2018-08-23T22:59:33.999Z,21.30
2018-08-23T23:02:02.630Z,21.10
2018-08-23T23:04:30.873Z,21.10
2018-08-23T23:06:59.452Z,21.10
2018-08-23T23:09:27.706Z,21.10
2018-08-23T23:11:56.515Z,21.10
2018-08-23T23:14:25.268Z,21.00
2018-08-23T23:16:54.736Z,21.00
2018-08-23T23:19:24.076Z,21.00
2018-08-23T23:21:53.005Z,21.00
2018-08-23T23:24:26.733Z,21.00
2018-08-23T23:26:56.628Z,20.90
2018-08-23T23:29:25.393Z,20.90
2018-08-23T23:31:53.645Z,21.00
2018-08-23T23:34:21.864Z,21.00
2018-08-23T23:36:50.501Z,21.00
2018-08-23T23:39:19.051Z,21.00
2018-08-23T23:41:47.300Z,20.90
2018-08-23T23:44:15.527Z,21.00
2018-08-23T23:46:43.752Z,20.90
2018-08-23T23:49:12.004Z,21.00
2018-08-23T23:51:40.672Z,20.90
2018-08-23T23:54:09.233Z,20.90
2018-08-23T23:56:37.472Z,20.90
2018-08-23T23:59:06.084Z,20.80
